createdAt,value
2018-05-06T00:01:49.824Z,56.53
2018-05-06T00:04:18.625Z,56.49
2018-05-06T00:06:48.169Z,56.52
2018-05-06T00:09:16.986Z,57.12
2018-05-06T00:11:45.809Z,57.00
2018-05-06T00:14:14.544Z,56.70
2018-05-06T00:16:44.139Z,55.34
2018-05-06T00:19:12.890Z,55.73
2018-05-06T00:21:41.645Z,56.70
2018-05-06T00:24:12.233Z,56.33
2018-05-06T00:26:41.453Z,56.09
2018-05-06T00:29:12.072Z,56.67
2018-05-06T00:31:41.504Z,56.12
2018-05-06T00:34:12.155Z,55.36
2018-05-06T00:36:41.524Z,54.97
2018-05-06T00:39:10.270Z,54.59
2018-05-06T00:41:39.106Z,54.49
2018-05-06T00:44:07.881Z,54.54
2018-05-06T00:46:36.633Z,54.02
2018-05-06T00:49:06.168Z,54.65
2018-05-06T00:51:34.933Z,54.42
2018-05-06T00:54:15.330Z,54.23
2018-05-06T00:56:44.087Z,54.30
2018-05-06T00:59:12.862Z,54.34
2018-05-06T01:01:41.837Z,53.44
2018-05-06T01:04:11.678Z,53.40
2018-05-06T01:06:40.533Z,52.85
2018-05-06T01:09:09.322Z,53.08
2018-05-06T01:11:38.162Z,53.59
2018-05-06T01:14:06.981Z,53.78
2018-05-06T01:16:35.796Z,53.69
2018-05-06T01:19:04.681Z,54.58
2018-05-06T01:21:34.196Z,54.38
2018-05-06T01:24:02.972Z,54.81
2018-05-06T01:26:31.737Z,54.37
2018-05-06T01:29:00.482Z,54.31
2018-05-06T01:31:29.985Z,55.43
2018-05-06T01:33:58.770Z,57.62
2018-05-06T01:36:27.494Z,57.92
2018-05-06T01:38:56.282Z,58.67
2018-05-06T01:41:25.805Z,59.33
2018-05-06T01:43:54.559Z,60.01
2018-05-06T01:46:23.360Z,60.04
2018-05-06T01:48:52.124Z,61.32
2018-05-06T01:51:20.884Z,60.74
2018-05-06T01:53:50.411Z,60.93
2018-05-06T01:56:19.158Z,59.70
2018-05-06T01:58:47.933Z,59.22
2018-05-06T02:01:16.661Z,59.88
2018-05-06T02:03:45.425Z,59.78
2018-05-06T02:06:14.194Z,60.08
2018-05-06T02:08:42.926Z,60.46
2018-05-06T02:11:12.456Z,59.72
2018-05-06T02:13:42.300Z,62.14
2018-05-06T02:16:11.051Z,62.79
2018-05-06T02:18:39.884Z,64.10
2018-05-06T02:21:08.657Z,63.56
2018-05-06T02:23:37.423Z,64.47
2018-05-06T02:26:06.149Z,65.20
2018-05-06T02:28:34.907Z,63.34
2018-05-06T02:31:04.134Z,62.12
2018-05-06T02:33:32.921Z,62.40
2018-05-06T02:36:01.661Z,62.37
2018-05-06T02:38:30.402Z,62.48
2018-05-06T02:40:59.151Z,62.42
2018-05-06T02:43:27.934Z,62.47
2018-05-06T02:45:56.701Z,63.89
2018-05-06T02:48:25.430Z,63.43
2018-05-06T02:50:54.172Z,62.95
2018-05-06T02:53:23.728Z,62.58
2018-05-06T02:55:52.515Z,64.01
2018-05-06T02:58:21.258Z,64.19
2018-05-06T03:00:50.013Z,62.94
2018-05-06T03:03:18.880Z,62.46
2018-05-06T03:05:47.650Z,62.60
2018-05-06T03:08:16.388Z,63.20
2018-05-06T03:10:45.171Z,62.87
2018-05-06T03:13:13.934Z,62.54
2018-05-06T03:15:42.717Z,62.79
2018-05-06T03:18:11.515Z,63.26
2018-05-06T03:20:40.253Z,62.79
2018-05-06T03:23:08.980Z,64.09
2018-05-06T03:25:37.901Z,64.26
2018-05-06T03:28:06.706Z,63.60
2018-05-06T03:30:35.448Z,62.89
2018-05-06T03:33:04.972Z,64.17
2018-05-06T03:35:33.721Z,63.83
2018-05-06T03:38:02.520Z,63.75
2018-05-06T03:40:32.083Z,62.65
2018-05-06T03:43:00.868Z,63.21
2018-05-06T03:45:29.629Z,63.84
2018-05-06T03:47:59.152Z,64.38
2018-05-06T03:50:27.949Z,64.52
2018-05-06T03:52:56.792Z,65.07
2018-05-06T03:55:25.637Z,64.05
2018-05-06T03:58:06.012Z,64.20
2018-05-06T04:00:42.217Z,64.50
2018-05-06T04:03:11.752Z,63.51
2018-05-06T04:05:40.590Z,63.68
2018-05-06T04:08:09.308Z,63.93
2018-05-06T04:10:38.199Z,63.35
2018-05-06T04:13:06.941Z,62.86
2018-05-06T04:15:35.772Z,62.24
2018-05-06T04:18:04.567Z,61.18
2018-05-06T04:20:33.357Z,61.22
2018-05-06T04:23:02.170Z,61.33
2018-05-06T04:25:30.980Z,61.84
2018-05-06T04:27:59.741Z,61.92
2018-05-06T04:30:28.531Z,61.97
2018-05-06T04:32:58.048Z,62.38
2018-05-06T04:35:26.859Z,62.21
2018-05-06T04:37:55.726Z,62.13
2018-05-06T04:40:24.554Z,61.72
2018-05-06T04:42:54.184Z,61.67
2018-05-06T04:45:22.945Z,61.67
2018-05-06T04:47:51.813Z,61.33
2018-05-06T04:50:20.572Z,61.24
2018-05-06T04:52:50.091Z,60.99
2018-05-06T04:55:18.835Z,60.92
2018-05-06T04:57:47.591Z,60.74
2018-05-06T05:00:16.504Z,60.84
2018-05-06T05:02:45.242Z,60.92
2018-05-06T05:05:14.037Z,60.07
2018-05-06T05:07:43.659Z,60.34
2018-05-06T05:10:13.515Z,60.08
2018-05-06T05:12:42.243Z,60.33
2018-05-06T05:15:12.496Z,60.39
2018-05-06T05:17:41.276Z,60.33
2018-05-06T05:20:10.059Z,60.64
2018-05-06T05:22:38.808Z,60.58
2018-05-06T05:25:08.348Z,60.33
2018-05-06T05:27:37.156Z,60.35
2018-05-06T05:30:06.334Z,60.41
2018-05-06T05:32:35.116Z,60.51
2018-05-06T05:35:04.659Z,60.53
2018-05-06T05:37:34.625Z,60.05
2018-05-06T05:40:03.368Z,60.73
2018-05-06T05:42:32.152Z,60.85
2018-05-06T05:45:01.660Z,60.50
2018-05-06T05:47:31.170Z,60.19
2018-05-06T05:49:59.948Z,59.93
2018-05-06T05:52:28.726Z,58.71
2018-05-06T05:54:57.476Z,59.86
2018-05-06T05:57:26.213Z,59.36
2018-05-06T05:59:54.966Z,59.95
2018-05-06T06:02:23.706Z,60.12
2018-05-06T06:04:53.502Z,59.93
2018-05-06T06:07:22.567Z,60.16
2018-05-06T06:09:52.963Z,58.45
2018-05-06T06:12:21.715Z,58.86
2018-05-06T06:14:51.501Z,58.82
2018-05-06T06:17:20.277Z,58.67
2018-05-06T06:19:49.788Z,57.75
2018-05-06T06:22:19.337Z,57.76
2018-05-06T06:24:48.115Z,58.06
2018-05-06T06:27:16.846Z,57.40
2018-05-06T06:29:45.600Z,56.88
2018-05-06T06:32:14.438Z,57.21
2018-05-06T06:34:45.833Z,56.28
2018-05-06T06:37:14.582Z,55.89
2018-05-06T06:39:44.866Z,55.62
2018-05-06T06:42:14.288Z,56.50
2018-05-06T06:44:44.305Z,56.33
2018-05-06T06:47:13.068Z,56.15
2018-05-06T06:49:42.468Z,56.43
2018-05-06T06:52:11.234Z,55.40
2018-05-06T06:54:39.985Z,55.97
2018-05-06T06:57:09.538Z,56.35
2018-05-06T06:59:39.037Z,54.73
2018-05-06T07:02:07.762Z,54.79
2018-05-06T07:04:36.508Z,53.79
2018-05-06T07:07:08.171Z,53.34
2018-05-06T07:09:37.750Z,53.05
2018-05-06T07:12:08.055Z,52.94
2018-05-06T07:14:42.153Z,52.82
2018-05-06T07:17:10.903Z,52.63
2018-05-06T07:19:39.875Z,51.07
2018-05-06T07:22:09.424Z,50.41
2018-05-06T07:24:38.988Z,49.64
2018-05-06T07:27:08.314Z,50.02
2018-05-06T07:29:38.315Z,50.26
2018-05-06T07:32:07.103Z,50.87
2018-05-06T07:34:36.665Z,51.40
2018-05-06T07:37:05.449Z,51.61
2018-05-06T07:39:34.263Z,51.31
2018-05-06T07:42:03.022Z,51.06
2018-05-06T07:44:31.789Z,50.21
2018-05-06T07:47:02.268Z,50.85
2018-05-06T07:49:31.549Z,50.33
2018-05-06T07:52:01.256Z,50.35
2018-05-06T07:54:30.897Z,51.25
2018-05-06T07:56:59.652Z,52.96
2018-05-06T07:59:29.547Z,52.34
2018-05-06T08:01:59.854Z,49.99
2018-05-06T08:04:29.007Z,49.85
2018-05-06T08:06:57.757Z,50.80
2018-05-06T08:09:28.034Z,50.91
2018-05-06T08:12:00.150Z,51.02
2018-05-06T08:14:30.133Z,50.91
2018-05-06T08:16:59.680Z,51.68
2018-05-06T08:19:29.096Z,53.29
2018-05-06T08:21:58.017Z,53.68
2018-05-06T08:24:27.510Z,53.73
2018-05-06T08:26:56.528Z,52.83
2018-05-06T08:29:27.010Z,51.73
2018-05-06T08:31:56.151Z,51.14
2018-05-06T08:34:26.216Z,52.28
2018-05-06T08:36:55.026Z,49.83
2018-05-06T08:39:24.602Z,49.20
2018-05-06T08:41:54.153Z,49.40
2018-05-06T08:44:23.844Z,49.23
2018-05-06T08:46:52.601Z,49.58
2018-05-06T08:49:21.359Z,49.79
2018-05-06T08:51:50.438Z,49.11
2018-05-06T08:54:20.186Z,46.03
2018-05-06T08:56:49.058Z,46.18
2018-05-06T08:59:18.904Z,47.08
2018-05-06T09:01:47.628Z,47.15
2018-05-06T09:04:16.452Z,47.17
2018-05-06T09:06:45.418Z,48.03
2018-05-06T09:09:14.169Z,44.01
2018-05-06T09:11:42.954Z,42.26
2018-05-06T09:14:11.748Z,43.27
2018-05-06T09:16:41.116Z,44.05
2018-05-06T09:19:11.477Z,43.83
2018-05-06T09:21:40.294Z,44.14
2018-05-06T09:24:11.140Z,41.91
2018-05-06T09:26:39.939Z,41.72
2018-05-06T09:29:09.342Z,41.75
2018-05-06T09:31:38.147Z,42.03
2018-05-06T09:34:08.743Z,41.28
2018-05-06T09:36:37.816Z,42.61
2018-05-06T09:39:07.379Z,41.13
2018-05-06T09:41:36.138Z,40.41
2018-05-06T09:44:05.398Z,40.32
2018-05-06T09:46:34.262Z,38.97
2018-05-06T09:49:04.500Z,39.46
2018-05-06T09:51:34.984Z,40.35
2018-05-06T09:54:05.483Z,39.44
2018-05-06T09:56:34.234Z,38.72
2018-05-06T09:59:05.126Z,40.48
2018-05-06T10:01:37.476Z,37.77
2018-05-06T10:04:06.585Z,35.87
2018-05-06T10:06:36.767Z,35.55
2018-05-06T10:09:06.296Z,39.47
2018-05-06T10:11:35.818Z,38.19
2018-05-06T10:14:04.555Z,37.00
2018-05-06T10:16:34.116Z,36.21
2018-05-06T10:19:02.866Z,37.94
2018-05-06T10:21:34.723Z,36.72
2018-05-06T10:24:03.484Z,38.45
2018-05-06T10:26:32.223Z,35.48
2018-05-06T10:29:01.565Z,38.52
2018-05-06T10:31:30.601Z,36.78
2018-05-06T10:33:59.346Z,36.60
2018-05-06T10:36:28.091Z,35.75
2018-05-06T10:38:56.815Z,36.11
2018-05-06T10:41:25.574Z,36.54
2018-05-06T10:43:55.857Z,35.94
2018-05-06T10:46:24.555Z,35.49
2018-05-06T10:48:53.778Z,36.74
2018-05-06T10:51:23.365Z,36.52
2018-05-06T10:53:53.318Z,33.94
2018-05-06T10:56:23.521Z,34.79
2018-05-06T10:58:52.629Z,35.97
2018-05-06T11:01:22.184Z,32.59
2018-05-06T11:03:51.019Z,32.94
2018-05-06T11:06:20.515Z,32.12
2018-05-06T11:08:49.302Z,33.31
2018-05-06T11:11:18.826Z,35.99
2018-05-06T11:13:47.606Z,33.61
2018-05-06T11:16:16.535Z,32.51
2018-05-06T11:18:45.329Z,33.42
2018-05-06T11:21:14.074Z,33.42
2018-05-06T11:23:51.841Z,36.40
2018-05-06T11:26:20.621Z,34.71
2018-05-06T11:28:49.610Z,35.03
2018-05-06T11:31:18.472Z,36.30
2018-05-06T11:33:47.239Z,37.35
2018-05-06T11:36:16.660Z,35.41
2018-05-06T11:38:45.517Z,32.37
2018-05-06T11:41:14.997Z,33.80
2018-05-06T11:43:43.778Z,35.37
2018-05-06T11:46:12.624Z,35.62
2018-05-06T11:48:41.412Z,36.17
2018-05-06T11:51:10.321Z,36.23
2018-05-06T11:53:39.062Z,35.93
2018-05-06T11:56:08.604Z,36.65
2018-05-06T11:58:37.348Z,37.62
2018-05-06T12:01:06.110Z,35.40
2018-05-06T12:03:34.852Z,33.64
2018-05-06T12:06:03.680Z,33.12
2018-05-06T12:08:32.450Z,33.34
2018-05-06T12:11:01.218Z,33.14
2018-05-06T12:13:31.592Z,34.18
2018-05-06T12:16:00.551Z,33.63
2018-05-06T12:18:29.393Z,33.58
2018-05-06T12:20:58.141Z,33.01
2018-05-06T12:23:27.006Z,33.33
2018-05-06T12:25:55.779Z,34.35
2018-05-06T12:28:24.497Z,35.18
2018-05-06T12:30:54.015Z,33.78
2018-05-06T12:33:23.592Z,35.77
2018-05-06T12:35:52.399Z,35.33
2018-05-06T12:38:21.180Z,35.36
2018-05-06T12:40:50.015Z,34.04
2018-05-06T12:43:18.804Z,34.37
2018-05-06T12:45:47.569Z,32.33
2018-05-06T12:48:18.181Z,35.05
2018-05-06T12:50:47.233Z,33.16
2018-05-06T12:53:15.954Z,35.20
2018-05-06T12:55:44.824Z,32.43
2018-05-06T12:58:13.585Z,34.33
2018-05-06T13:00:42.305Z,32.66
2018-05-06T13:03:11.066Z,33.90
2018-05-06T13:05:39.941Z,30.89
2018-05-06T13:08:08.686Z,32.52
2018-05-06T13:10:38.248Z,32.01
2018-05-06T13:13:07.084Z,33.26
2018-05-06T13:15:36.636Z,31.15
2018-05-06T13:18:05.414Z,31.71
2018-05-06T13:20:34.192Z,30.64
2018-05-06T13:23:02.908Z,30.37
2018-05-06T13:25:31.683Z,28.29
2018-05-06T13:28:00.501Z,29.36
2018-05-06T13:30:29.221Z,30.53
2018-05-06T13:32:58.023Z,30.10
2018-05-06T13:35:26.780Z,29.86
2018-05-06T13:37:56.316Z,30.00
2018-05-06T13:40:25.090Z,29.33
2018-05-06T13:42:54.603Z,29.66
2018-05-06T13:45:24.119Z,29.07
2018-05-06T13:47:52.872Z,28.64
2018-05-06T13:50:22.163Z,29.39
2018-05-06T13:52:50.905Z,27.85
2018-05-06T13:55:19.713Z,28.02
2018-05-06T13:57:48.765Z,28.02
2018-05-06T14:00:19.383Z,27.60
2018-05-06T14:02:48.580Z,28.75
2018-05-06T14:05:17.308Z,28.71
2018-05-06T14:07:46.831Z,30.25
2018-05-06T14:10:15.581Z,27.44
2018-05-06T14:12:44.433Z,27.81
2018-05-06T14:15:13.188Z,26.01
2018-05-06T14:17:41.950Z,27.56
2018-05-06T14:20:11.469Z,26.69
2018-05-06T14:22:40.211Z,27.76
2018-05-06T14:25:08.986Z,27.84
2018-05-06T14:27:37.733Z,27.10
2018-05-06T14:30:06.636Z,27.23
2018-05-06T14:32:35.341Z,27.63
2018-05-06T14:35:04.121Z,26.61
2018-05-06T14:37:32.840Z,28.01
2018-05-06T14:40:01.665Z,26.71
2018-05-06T14:42:30.416Z,27.14
2018-05-06T14:44:59.156Z,27.88
2018-05-06T14:47:39.548Z,27.15
2018-05-06T14:50:08.278Z,25.61
2018-05-06T14:52:37.636Z,26.17
2018-05-06T14:55:06.420Z,27.71
2018-05-06T14:57:37.548Z,27.60
2018-05-06T15:00:06.334Z,28.50
2018-05-06T15:02:35.050Z,28.03
2018-05-06T15:05:03.838Z,28.84
2018-05-06T15:07:32.593Z,29.07
2018-05-06T15:10:01.349Z,28.08
2018-05-06T15:12:30.086Z,27.89
2018-05-06T15:14:59.021Z,26.45
2018-05-06T15:17:28.572Z,28.00
2018-05-06T15:19:58.119Z,27.67
2018-05-06T15:22:26.869Z,27.99
2018-05-06T15:24:57.191Z,27.52
2018-05-06T15:27:26.049Z,25.91
2018-05-06T15:29:54.834Z,28.19
2018-05-06T15:32:23.565Z,28.04
2018-05-06T15:34:53.300Z,27.24
2018-05-06T15:37:22.053Z,27.77
2018-05-06T15:39:50.788Z,27.95
2018-05-06T15:42:19.547Z,27.75
2018-05-06T15:44:49.129Z,28.64
2018-05-06T15:47:17.863Z,28.81
2018-05-06T15:49:46.658Z,27.77
2018-05-06T15:52:15.578Z,28.45
2018-05-06T15:54:44.313Z,29.32
2018-05-06T15:57:13.067Z,29.08
2018-05-06T15:59:42.600Z,28.78
2018-05-06T16:05:12.252Z,30.14
2018-05-06T16:07:41.019Z,29.81
2018-05-06T16:10:09.784Z,29.41
2018-05-06T16:12:38.628Z,30.73
2018-05-06T16:15:07.403Z,31.44
2018-05-06T16:17:37.003Z,30.26
2018-05-06T16:20:05.670Z,30.14
2018-05-06T16:22:38.414Z,31.22
2018-05-06T16:25:17.328Z,30.31
2018-05-06T16:27:53.213Z,29.32
2018-05-06T16:30:27.113Z,30.60
2018-05-06T16:33:02.649Z,30.81
2018-05-06T16:35:37.421Z,31.26
2018-05-06T16:38:13.511Z,29.51
2018-05-06T16:40:48.038Z,30.80
2018-05-06T16:43:20.089Z,31.15
2018-05-06T16:45:55.330Z,30.77
2018-05-06T16:48:27.224Z,30.95
2018-05-06T16:51:02.506Z,31.82
2018-05-06T16:53:37.986Z,31.31
2018-05-06T16:56:15.422Z,31.61
2018-05-06T16:58:51.003Z,32.87
2018-05-06T17:01:21.973Z,33.33
2018-05-06T17:03:55.854Z,34.53
2018-05-06T17:06:31.322Z,34.82
2018-05-06T17:09:06.355Z,35.48
2018-05-06T17:11:41.623Z,36.25
2018-05-06T17:14:18.839Z,36.89
2018-05-06T17:16:55.580Z,37.89
2018-05-06T17:19:29.242Z,38.78
2018-05-06T17:22:03.020Z,39.23
2018-05-06T17:24:38.272Z,39.25
2018-05-06T17:27:13.699Z,40.49
2018-05-06T17:29:49.975Z,40.04
2018-05-06T17:35:14.174Z,40.12
2018-05-06T17:37:49.811Z,40.04
2018-05-06T17:40:28.693Z,39.91
2018-05-06T17:43:07.001Z,40.85
2018-05-06T17:45:39.716Z,41.45
2018-05-06T17:48:18.610Z,41.90
2018-05-06T17:50:55.660Z,40.92
2018-05-06T17:53:27.719Z,41.98
2018-05-06T17:56:01.244Z,40.90
2018-05-06T17:58:35.582Z,41.53
2018-05-06T18:06:24.729Z,42.67
2018-05-06T18:08:58.559Z,42.82
2018-05-06T18:11:31.820Z,43.09
2018-05-06T18:14:09.800Z,42.74
2018-05-06T18:16:44.114Z,43.14
2018-05-06T18:19:19.750Z,44.19
2018-05-06T18:21:50.581Z,43.82
2018-05-06T18:24:25.069Z,44.00
2018-05-06T18:26:59.477Z,44.44
2018-05-06T18:29:34.556Z,44.41
2018-05-06T18:32:07.796Z,44.90
2018-05-06T18:34:41.677Z,46.13
2018-05-06T18:37:15.234Z,46.56
2018-05-06T18:39:47.316Z,46.31
2018-05-06T18:42:22.470Z,45.99
2018-05-06T18:44:55.933Z,45.57
2018-05-06T18:47:33.540Z,45.67
2018-05-06T18:50:06.984Z,45.52
2018-05-06T18:52:43.413Z,44.82
2018-05-06T18:55:21.687Z,46.28
2018-05-06T18:57:56.944Z,46.45
2018-05-06T19:00:31.098Z,46.88
2018-05-06T19:06:08.278Z,46.87
2018-05-06T19:08:43.543Z,46.77
2018-05-06T19:14:00.930Z,46.96
2018-05-06T19:16:37.051Z,46.87
2018-05-06T19:19:12.228Z,46.96
2018-05-06T19:21:47.506Z,46.53
2018-05-06T19:24:24.552Z,47.11
2018-05-06T19:29:40.413Z,47.83
2018-05-06T19:32:16.304Z,47.92
2018-05-06T19:34:46.031Z,48.30
2018-05-06T19:37:14.778Z,47.92
2018-05-06T19:39:43.559Z,48.06
2018-05-06T19:42:13.115Z,47.82
2018-05-06T19:44:43.277Z,48.19
2018-05-06T19:47:17.347Z,47.97
2018-05-06T19:49:46.242Z,48.55
2018-05-06T19:52:15.005Z,48.45
2018-05-06T19:54:43.753Z,48.22
2018-05-06T19:57:13.900Z,48.40
2018-05-06T19:59:43.182Z,48.76
2018-05-06T20:02:13.213Z,48.34
2018-05-06T20:04:42.531Z,48.60
2018-05-06T20:07:12.729Z,48.33
2018-05-06T20:09:42.645Z,48.58
2018-05-06T20:12:11.412Z,49.19
2018-05-06T20:14:40.157Z,49.97
2018-05-06T20:17:09.029Z,50.62
2018-05-06T20:19:38.521Z,50.19
2018-05-06T20:22:07.240Z,50.83
2018-05-06T20:24:36.028Z,50.88
2018-05-06T20:27:05.571Z,51.50
2018-05-06T20:29:34.317Z,51.44
2018-05-06T20:32:03.188Z,50.89
2018-05-06T20:34:31.960Z,51.35
2018-05-06T20:37:01.487Z,51.26
2018-05-06T20:39:30.247Z,52.08
2018-05-06T20:41:59.828Z,51.43
2018-05-06T20:44:28.565Z,51.21
2018-05-06T20:46:59.226Z,51.79
2018-05-06T20:49:29.392Z,51.61
2018-05-06T20:51:58.606Z,51.44
2018-05-06T20:54:28.950Z,51.64
2018-05-06T20:56:58.849Z,52.04
2018-05-06T20:59:29.433Z,51.54
2018-05-06T21:01:58.359Z,51.14
2018-05-06T21:04:27.406Z,51.58
2018-05-06T21:06:56.974Z,51.99
2018-05-06T21:09:25.779Z,51.66
2018-05-06T21:11:55.323Z,52.11
2018-05-06T21:14:24.113Z,52.88
2018-05-06T21:16:52.926Z,53.24
2018-05-06T21:19:21.663Z,52.90
2018-05-06T21:21:51.111Z,53.06
2018-05-06T21:24:20.251Z,52.01
2018-05-06T21:26:49.000Z,51.92
2018-05-06T21:29:17.794Z,52.11
2018-05-06T21:31:52.629Z,53.31
2018-05-06T21:34:28.845Z,52.66
2018-05-06T21:37:05.637Z,52.21
2018-05-06T21:39:37.607Z,52.59
2018-05-06T21:42:12.944Z,52.94
2018-05-06T21:44:54.856Z,52.56
2018-05-06T21:47:35.871Z,53.35
2018-05-06T21:50:12.388Z,53.68
2018-05-06T21:52:44.916Z,53.94
2018-05-06T21:55:23.612Z,53.46
2018-05-06T21:57:59.523Z,53.50
2018-05-06T22:00:31.366Z,53.36
2018-05-06T22:03:06.249Z,53.16
2018-05-06T22:05:40.836Z,55.21
2018-05-06T22:08:15.056Z,55.17
2018-05-06T22:10:47.925Z,54.51
2018-05-06T22:13:28.250Z,53.93
2018-05-06T22:16:01.392Z,53.62
2018-05-06T22:18:36.291Z,53.55
2018-05-06T22:21:11.630Z,52.86
2018-05-06T22:23:44.864Z,54.29
2018-05-06T22:26:21.220Z,54.78
2018-05-06T22:28:55.545Z,54.64
2018-05-06T22:31:30.269Z,54.12
2018-05-06T22:34:06.988Z,53.61
2018-05-06T22:36:41.392Z,54.37
2018-05-06T22:39:16.038Z,56.34
2018-05-06T22:44:32.527Z,55.33
2018-05-06T22:47:04.503Z,55.18
2018-05-06T22:49:41.869Z,55.05
2018-05-06T22:52:14.662Z,56.52
2018-05-06T22:54:50.449Z,56.22
2018-05-06T22:57:23.471Z,55.88
2018-05-06T23:00:00.411Z,55.40
2018-05-06T23:02:36.352Z,55.97
2018-05-06T23:05:07.669Z,56.01
2018-05-06T23:07:42.945Z,56.15
2018-05-06T23:10:24.039Z,56.02
2018-05-06T23:12:59.452Z,55.79
2018-05-06T23:15:33.796Z,56.00
2018-05-06T23:18:11.658Z,55.56
2018-05-06T23:20:46.504Z,55.65
2018-05-06T23:23:19.821Z,55.72
2018-05-06T23:26:01.905Z,55.76
2018-05-06T23:28:38.403Z,55.42
2018-05-06T23:31:15.177Z,56.14
2018-05-06T23:33:47.416Z,55.92
2018-05-06T23:36:23.172Z,55.66
2018-05-06T23:39:01.094Z,56.16
2018-05-06T23:41:38.068Z,56.88
2018-05-06T23:44:15.237Z,57.05
2018-05-06T23:46:50.765Z,56.97
2018-05-06T23:49:24.553Z,56.91
2018-05-06T23:51:59.824Z,57.33
2018-05-06T23:54:35.888Z,57.62
2018-05-06T23:57:10.716Z,56.98
2018-05-06T23:59:45.996Z,56.96
